Time;durP1;ratioP1;P1;durP2;ratioP2;P2;SDS_P1;SDS_P2;PMS_P1;PMS_P2;Temp;Humidity;BMP_temperature;BMP_pressure;BME280_temperature;BME280_humidity;BME280_pressure;Samples;Min_cycle;Max_cycle;Signal;HPM_P1;HPM_P2
2022/10/28 00:01:11;;;;;;;15.95;10.88;;;;;;;;;;4947327;28;20119;-75
2022/10/28 00:03:38;;;;;;;15.65;10.00;;;;;;;;;;4952613;28;20085;-75
2022/10/28 00:06:09;;;;;;;13.70;10.25;;;;;;;;;;4951400;28;20511;-75
2022/10/28 00:08:35;;;;;;;16.80;10.50;;;;;;;;;;4951385;28;20039;-75
2022/10/28 00:11:03;;;;;;;15.65;11.15;;;;;;;;;;4940017;28;20051;-75
2022/10/28 00:13:29;;;;;;;14.65;10.52;;;;;;;;;;4946520;28;20054;-76
2022/10/28 00:15:55;;;;;;;13.68;10.85;;;;;;;;;;4949314;28;20483;-76
2022/10/28 00:18:21;;;;;;;16.10;10.48;;;;;;;;;;4944739;28;20125;-76
2022/10/28 00:20:47;;;;;;;14.02;10.60;;;;;;;;;;4955799;28;20102;-76
2022/10/28 00:23:13;;;;;;;14.20;10.20;;;;;;;;;;4954068;28;20496;-75
2022/10/28 00:25:39;;;;;;;16.00;10.57;;;;;;;;;;4952558;28;20062;-76
2022/10/28 00:28:05;;;;;;;16.23;10.55;;;;;;;;;;4983300;28;20079;-75
2022/10/28 00:30:30;;;;;;;13.20;10.27;;;;;;;;;;4945785;28;20118;-75
2022/10/28 00:32:56;;;;;;;13.52;9.60;;;;;;;;;;4945111;28;20106;-75
2022/10/28 00:35:22;;;;;;;15.80;10.35;;;;;;;;;;4954333;28;20480;-75
2022/10/28 00:37:52;;;;;;;12.90;10.35;;;;;;;;;;4952168;28;20059;-75
2022/10/28 00:40:18;;;;;;;13.50;9.45;;;;;;;;;;4955916;28;20153;-75
2022/10/28 00:42:44;;;;;;;14.10;9.20;;;;;;;;;;4952398;28;20527;-75
2022/10/28 00:45:10;;;;;;;12.77;9.80;;;;;;;;;;4952205;28;20052;-75
2022/10/28 00:47:36;;;;;;;15.93;9.93;;;;;;;;;;4953863;28;20043;-75
2022/10/28 00:50:11;;;;;;;13.38;9.73;;;;;;;;;;4954340;28;20051;-75
2022/10/28 00:52:38;;;;;;;19.50;10.57;;;;;;;;;;4950539;28;20392;-75
2022/10/28 00:55:04;;;;;;;14.23;9.63;;;;;;;;;;4938694;28;20071;-75
2022/10/28 00:57:33;;;;;;;15.00;9.32;;;;;;;;;;4954207;28;20050;-75
2022/10/28 01:00:00;;;;;;;13.00;9.73;;;;;;;;;;4945292;28;20530;-76
2022/10/28 01:02:26;;;;;;;12.73;9.85;;;;;;;;;;4959089;28;20053;-75
2022/10/28 01:04:52;;;;;;;14.52;9.82;;;;;;;;;;4947050;28;20054;-75
2022/10/28 01:07:18;;;;;;;15.35;10.10;;;;;;;;;;4951923;28;20047;-75
2022/10/28 01:09:44;;;;;;;15.48;10.95;;;;;;;;;;4954556;28;20051;-75
2022/10/28 01:12:29;;;;;;;15.70;11.77;;;;;;;;;;4951925;28;20047;-75
2022/10/28 01:15:14;;;;;;;17.80;11.35;;;;;;;;;;4940505;28;20500;-75
2022/10/28 01:17:43;;;;;;;15.52;10.48;;;;;;;;;;4950244;28;20047;-75
2022/10/28 01:20:12;;;;;;;19.52;11.25;;;;;;;;;;4951469;28;20086;-75
2022/10/28 01:22:51;;;;;;;13.88;10.57;;;;;;;;;;4978898;28;20055;-75
2022/10/28 01:25:23;;;;;;;14.13;10.68;;;;;;;;;;4952461;28;20051;-75
2022/10/28 01:27:57;;;;;;;14.10;10.43;;;;;;;;;;4945352;28;20062;-75
2022/10/28 01:30:24;;;;;;;17.02;10.98;;;;;;;;;;4951119;28;20047;-75
2022/10/28 01:32:50;;;;;;;16.65;10.55;;;;;;;;;;4953723;28;20058;-75
2022/10/28 01:35:28;;;;;;;13.85;10.40;;;;;;;;;;4943886;28;20078;-76
2022/10/28 01:38:00;;;;;;;15.50;11.02;;;;;;;;;;4951923;28;20047;-75
2022/10/28 01:40:33;;;;;;;14.52;10.65;;;;;;;;;;4982812;28;20126;-75
2022/10/28 01:42:59;;;;;;;;;;;;;;;;;;4955135;28;20547;-75
2022/10/28 01:45:28;;;;;;;14.73;11.15;;;;;;;;;;4946438;28;20013;-75
2022/10/28 01:47:54;;;;;;;16.55;11.93;;;;;;;;;;4951108;28;20067;-75
2022/10/28 01:50:43;;;;;;;18.10;11.80;;;;;;;;;;4948165;28;20051;-76
2022/10/28 01:53:11;;;;;;;15.82;12.70;;;;;;;;;;4954203;28;20089;-75
2022/10/28 01:55:38;;;;;;;20.42;12.07;;;;;;;;;;4953686;28;20051;-75
2022/10/28 01:58:06;;;;;;;16.85;12.15;;;;;;;;;;4975115;28;20424;-75
2022/10/28 02:00:33;;;;;;;16.83;12.38;;;;;;;;;;4951687;28;20055;-75
2022/10/28 02:02:59;;;;;;;16.80;12.00;;;;;;;;;;4949403;28;20087;-75
2022/10/28 02:05:45;;;;;;;16.48;11.88;;;;;;;;;;4984499;28;20381;-75
2022/10/28 02:08:11;;;;;;;17.02;12.40;;;;;;;;;;4979242;28;20055;-75
2022/10/28 02:10:41;;;;;;;16.60;12.40;;;;;;;;;;4944441;28;20113;-75
2022/10/28 02:13:12;;;;;;;13.13;11.73;;;;;;;;;;4954179;28;20134;-75
2022/10/28 02:15:43;;;;;;;16.55;12.45;;;;;;;;;;4962295;28;20043;-75
2022/10/28 02:18:18;;;;;;;19.35;12.73;;;;;;;;;;4954058;28;20058;-75
2022/10/28 02:20:44;;;;;;;16.77;12.77;;;;;;;;;;4951095;28;20043;-75
2022/10/28 02:23:15;;;;;;;16.40;11.95;;;;;;;;;;4955346;28;20079;-75
2022/10/28 02:25:45;;;;;;;16.42;12.57;;;;;;;;;;4950483;28;20146;-75
2022/10/28 02:28:15;;;;;;;15.85;12.30;;;;;;;;;;4955313;28;20045;-75
2022/10/28 02:30:44;;;;;;;15.23;11.73;;;;;;;;;;4974162;28;20077;-75
2022/10/28 02:33:12;;;;;;;16.23;12.30;;;;;;;;;;4953882;28;20134;-75
2022/10/28 02:35:39;;;;;;;17.45;11.95;;;;;;;;;;4948898;28;20047;-75
2022/10/28 02:38:09;;;;;;;18.25;11.55;;;;;;;;;;4949109;28;20035;-75
2022/10/28 02:40:36;;;;;;;16.45;11.73;;;;;;;;;;4957108;28;20134;-75
2022/10/28 02:43:03;;;;;;;19.27;11.98;;;;;;;;;;4943187;28;20121;-75
2022/10/28 02:45:36;;;;;;;15.15;11.98;;;;;;;;;;4955838;28;20054;-75
2022/10/28 02:48:13;;;;;;;17.52;11.88;;;;;;;;;;4960282;28;20055;-75
2022/10/28 02:50:42;;;;;;;16.08;11.88;;;;;;;;;;4952696;28;20058;-75
2022/10/28 02:53:15;;;;;;;13.00;11.05;;;;;;;;;;4950313;28;20047;-75
2022/10/28 02:55:43;;;;;;;14.45;11.27;;;;;;;;;;4959410;28;20159;-75
2022/10/28 02:58:09;;;;;;;15.73;11.90;;;;;;;;;;4952358;28;20522;-75
2022/10/28 03:00:35;;;;;;;15.27;11.40;;;;;;;;;;4975288;28;20138;-75
2022/10/28 03:03:01;;;;;;;19.70;11.90;;;;;;;;;;4951598;28;20139;-75
2022/10/28 03:05:27;;;;;;;17.40;11.63;;;;;;;;;;4950765;28;20082;-75
2022/10/28 03:07:53;;;;;;;16.45;11.38;;;;;;;;;;4950030;28;20510;-75
2022/10/28 03:10:19;;;;;;;17.88;12.07;;;;;;;;;;4938324;28;20067;-75
2022/10/28 03:12:45;;;;;;;15.40;12.00;;;;;;;;;;4951505;28;20043;-75
2022/10/28 03:15:11;;;;;;;16.98;11.98;;;;;;;;;;4951524;28;20051;-75
2022/10/28 03:17:37;;;;;;;19.05;11.23;;;;;;;;;;4948360;28;20441;-75
2022/10/28 03:20:03;;;;;;;16.13;11.48;;;;;;;;;;4971739;28;20061;-75
2022/10/28 03:22:32;;;;;;;14.07;11.43;;;;;;;;;;4950860;28;20455;-75
2022/10/28 03:24:58;;;;;;;16.67;11.30;;;;;;;;;;4951824;28;20050;-75
2022/10/28 03:27:24;;;;;;;17.17;11.02;;;;;;;;;;4951360;28;20046;-75
2022/10/28 03:29:50;;;;;;;14.57;11.20;;;;;;;;;;4936168;28;20043;-75
2022/10/28 03:32:16;;;;;;;14.30;11.35;;;;;;;;;;4950081;28;20082;-75
2022/10/28 03:34:46;;;;;;;14.70;10.57;;;;;;;;;;4946150;28;20056;-75
2022/10/28 03:37:14;;;;;;;14.07;11.23;;;;;;;;;;4972452;28;20056;-75
2022/10/28 03:39:40;;;;;;;16.98;11.10;;;;;;;;;;4951328;28;20043;-75
2022/10/28 03:42:06;;;;;;;16.80;11.10;;;;;;;;;;4943165;28;20110;-75
2022/10/28 03:44:32;;;;;;;15.07;11.32;;;;;;;;;;4950655;28;20427;-75
2022/10/28 03:46:58;;;;;;;15.00;11.15;;;;;;;;;;4953370;28;20043;-75
2022/10/28 03:49:24;;;;;;;13.13;11.45;;;;;;;;;;4947634;28;20055;-75
2022/10/28 03:51:50;;;;;;;14.98;11.00;;;;;;;;;;4952020;28;20081;-75
2022/10/28 03:54:16;;;;;;;17.40;11.40;;;;;;;;;;4948463;28;20435;-75
2022/10/28 03:56:42;;;;;;;14.75;11.65;;;;;;;;;;4946877;28;20125;-75
2022/10/28 03:59:09;;;;;;;18.20;11.85;;;;;;;;;;4958320;28;20083;-75
2022/10/28 04:01:35;;;;;;;16.63;11.57;;;;;;;;;;4958661;28;20062;-75
2022/10/28 04:04:01;;;;;;;15.45;11.00;;;;;;;;;;4954191;28;20407;-75
2022/10/28 04:06:27;;;;;;;15.63;11.60;;;;;;;;;;4958521;28;20054;-75
2022/10/28 04:08:53;;;;;;;14.95;10.68;;;;;;;;;;4952287;28;20055;-75
2022/10/28 04:11:20;;;;;;;19.42;11.55;;;;;;;;;;4951102;28;20456;-75
2022/10/28 04:13:46;;;;;;;16.63;10.80;;;;;;;;;;4989223;28;20082;-75
2022/10/28 04:16:12;;;;;;;15.77;10.60;;;;;;;;;;4957201;28;20141;-75
2022/10/28 04:18:38;;;;;;;14.57;11.15;;;;;;;;;;4954095;28;20130;-75
2022/10/28 04:21:04;;;;;;;13.57;11.20;;;;;;;;;;4952581;28;20439;-75
2022/10/28 04:23:33;;;;;;;14.65;10.85;;;;;;;;;;4954815;28;20372;-75
2022/10/28 04:25:59;;;;;;;14.10;10.45;;;;;;;;;;4940458;29;20064;-75
2022/10/28 04:28:25;;;;;;;15.35;10.82;;;;;;;;;;4943801;28;20055;-75
2022/10/28 04:30:51;;;;;;;16.25;10.75;;;;;;;;;;4956709;28;20082;-75
2022/10/28 04:33:17;;;;;;;16.13;10.82;;;;;;;;;;4987955;28;20047;-75
2022/10/28 04:35:44;;;;;;;17.67;11.10;;;;;;;;;;4946741;28;20039;-75
2022/10/28 04:38:10;;;;;;;12.38;10.18;;;;;;;;;;4988826;28;20084;-75
2022/10/28 04:40:37;;;;;;;16.60;10.50;;;;;;;;;;4957436;28;20085;-75
2022/10/28 04:43:03;;;;;;;15.07;11.30;;;;;;;;;;4954232;28;20047;-75
2022/10/28 04:45:29;;;;;;;15.55;11.57;;;;;;;;;;4986640;28;20047;-75
2022/10/28 04:48:01;;;;;;;15.50;10.68;;;;;;;;;;4955652;28;20051;-75
2022/10/28 04:50:27;;;;;;;14.38;10.48;;;;;;;;;;4956236;28;20092;-75
2022/10/28 04:52:53;;;;;;;16.08;10.13;;;;;;;;;;4958199;28;20483;-75
2022/10/28 04:55:19;;;;;;;14.48;10.43;;;;;;;;;;4948422;28;20045;-75
2022/10/28 04:57:52;;;;;;;16.27;9.98;;;;;;;;;;4955930;28;20050;-75
2022/10/28 05:00:18;;;;;;;17.00;10.95;;;;;;;;;;4953112;28;20135;-75
2022/10/28 05:02:44;;;;;;;16.02;10.52;;;;;;;;;;4986629;28;20062;-75
2022/10/28 05:05:10;;;;;;;16.75;11.27;;;;;;;;;;4952143;28;20047;-75
2022/10/28 05:07:37;;;;;;;15.40;10.55;;;;;;;;;;4953783;28;20133;-75
2022/10/28 05:10:03;;;;;;;17.25;10.52;;;;;;;;;;4952702;28;20480;-75
2022/10/28 05:12:29;;;;;;;14.63;10.60;;;;;;;;;;4952765;28;20093;-75
2022/10/28 05:14:55;;;;;;;14.30;11.00;;;;;;;;;;4953919;28;20075;-75
2022/10/28 05:17:21;;;;;;;12.02;10.45;;;;;;;;;;4951820;28;20051;-75
2022/10/28 05:19:47;;;;;;;16.77;11.02;;;;;;;;;;4978208;28;20035;-75
2022/10/28 05:22:13;;;;;;;16.00;11.00;;;;;;;;;;4956242;28;20051;-75
2022/10/28 05:24:39;;;;;;;17.55;11.02;;;;;;;;;;4952336;28;20171;-75
2022/10/28 05:27:08;;;;;;;17.67;10.63;;;;;;;;;;4938677;28;20122;-75
2022/10/28 05:29:34;;;;;;;17.48;10.32;;;;;;;;;;4954018;28;20048;-76
2022/10/28 05:32:00;;;;;;;15.77;11.35;;;;;;;;;;4947134;28;20079;-75
2022/10/28 05:34:26;;;;;;;17.05;11.10;;;;;;;;;;4955807;28;20047;-75
2022/10/28 05:36:52;;;;;;;18.25;11.48;;;;;;;;;;4948606;28;20419;-75
2022/10/28 05:39:18;;;;;;;14.88;11.25;;;;;;;;;;4949628;28;20058;-75
2022/10/28 05:41:44;;;;;;;21.52;11.90;;;;;;;;;;4954107;28;20040;-75
2022/10/28 05:44:10;;;;;;;14.70;10.32;;;;;;;;;;4950429;28;20066;-75
2022/10/28 05:46:36;;;;;;;14.70;10.60;;;;;;;;;;4950454;28;20412;-75
2022/10/28 05:49:03;;;;;;;17.70;10.98;;;;;;;;;;4950918;28;20109;-75
2022/10/28 05:51:29;;;;;;;17.25;10.38;;;;;;;;;;4979040;28;20070;-75
2022/10/28 05:53:55;;;;;;;15.80;11.18;;;;;;;;;;4947311;28;20044;-75
2022/10/28 05:56:21;;;;;;;13.95;10.70;;;;;;;;;;4984974;28;20518;-75
2022/10/28 05:58:48;;;;;;;15.05;11.10;;;;;;;;;;4950495;29;20046;-75
2022/10/28 06:01:14;;;;;;;15.48;11.10;;;;;;;;;;4946741;29;20055;-75
2022/10/28 06:03:40;;;;;;;16.33;10.43;;;;;;;;;;4974388;28;20043;-75
2022/10/28 06:06:06;;;;;;;16.17;10.40;;;;;;;;;;4976074;28;20113;-75
2022/10/28 06:08:32;;;;;;;20.48;10.52;;;;;;;;;;4944844;28;20129;-75
2022/10/28 06:10:58;;;;;;;13.18;9.60;;;;;;;;;;4977783;28;20535;-75
2022/10/28 06:13:24;;;;;;;14.77;10.02;;;;;;;;;;4951536;28;20241;-75
2022/10/28 06:15:51;;;;;;;17.77;10.45;;;;;;;;;;4944756;28;20051;-76
2022/10/28 06:18:17;;;;;;;15.07;10.63;;;;;;;;;;4950818;28;20047;-76
2022/10/28 06:20:43;;;;;;;16.60;11.25;;;;;;;;;;4938199;28;20396;-76
2022/10/28 06:23:09;;;;;;;14.77;9.30;;;;;;;;;;4941997;29;20088;-76
2022/10/28 06:25:35;;;;;;;14.85;10.68;;;;;;;;;;4933926;29;20039;-75
2022/10/28 06:28:01;;;;;;;14.10;10.55;;;;;;;;;;4945850;28;20056;-76
2022/10/28 06:30:27;;;;;;;15.07;10.18;;;;;;;;;;4941479;29;20046;-76
2022/10/28 06:32:57;;;;;;;14.68;10.65;;;;;;;;;;4950942;28;20186;-76
2022/10/28 06:35:23;;;;;;;20.67;10.85;;;;;;;;;;4944497;28;20046;-76
2022/10/28 06:37:53;;;;;;;14.50;10.15;;;;;;;;;;4954069;28;20051;-76
2022/10/28 06:40:18;;;;;;;14.13;10.00;;;;;;;;;;4980114;28;20134;-76
2022/10/28 06:42:45;;;;;;;14.45;9.73;;;;;;;;;;4939146;28;20615;-76
2022/10/28 06:45:11;;;;;;;14.75;10.30;;;;;;;;;;4947573;28;20039;-76
2022/10/28 06:47:36;;;;;;;14.68;9.82;;;;;;;;;;4958937;28;20133;-76
2022/10/28 06:50:02;;;;;;;20.52;10.48;;;;;;;;;;4950899;28;20170;-76
2022/10/28 06:52:28;;;;;;;17.45;10.35;;;;;;;;;;4985283;28;20062;-75
2022/10/28 06:54:54;;;;;;;16.88;10.48;;;;;;;;;;4949625;28;20044;-75
2022/10/28 06:57:21;;;;;;;16.23;9.52;;;;;;;;;;4983442;28;20407;-75
2022/10/28 06:59:48;;;;;;;15.05;9.90;;;;;;;;;;4988901;28;20133;-76
2022/10/28 07:02:14;;;;;;;15.40;9.43;;;;;;;;;;4968343;28;20578;-75
2022/10/28 07:04:41;;;;;;;14.95;10.13;;;;;;;;;;4947506;28;20047;-76
2022/10/28 07:07:07;;;;;;;14.45;9.95;;;;;;;;;;4952031;28;20058;-75
2022/10/28 07:09:35;;;;;;;17.45;10.07;;;;;;;;;;4961301;28;20047;-75
2022/10/28 07:12:01;;;;;;;18.80;10.90;;;;;;;;;;4949407;28;20051;-76
2022/10/28 07:14:27;;;;;;;14.40;8.85;;;;;;;;;;4950442;28;20046;-76
2022/10/28 07:16:53;;;;;;;13.75;10.10;;;;;;;;;;4953120;28;20043;-75
2022/10/28 07:19:19;;;;;;;16.08;9.57;;;;;;;;;;4950436;28;20106;-75
2022/10/28 07:21:47;;;;;;;15.68;9.90;;;;;;;;;;4933854;29;20111;-75
2022/10/28 07:24:12;;;;;;;15.73;9.60;;;;;;;;;;4940207;28;20043;-75
2022/10/28 07:26:38;;;;;;;15.73;9.80;;;;;;;;;;4950981;28;20039;-75
2022/10/28 07:29:05;;;;;;;22.45;10.30;;;;;;;;;;4980697;28;20043;-75
2022/10/28 07:31:31;;;;;;;14.30;10.05;;;;;;;;;;4950237;28;20035;-75
2022/10/28 07:34:00;;;;;;;14.68;9.90;;;;;;;;;;4983142;28;20046;-76
2022/10/28 07:36:26;;;;;;;14.88;10.00;;;;;;;;;;4958564;28;20050;-75
2022/10/28 07:38:52;;;;;;;15.57;9.68;;;;;;;;;;4963641;28;20039;-75
2022/10/28 07:41:20;;;;;;;15.98;9.82;;;;;;;;;;4944010;28;20102;-75
2022/10/28 07:43:46;;;;;;;17.08;9.75;;;;;;;;;;4947791;28;20047;-76
2022/10/28 07:46:12;;;;;;;16.98;10.60;;;;;;;;;;4955826;28;20089;-75
2022/10/28 07:48:38;;;;;;;14.52;10.15;;;;;;;;;;4965925;28;20133;-75
2022/10/28 07:51:06;;;;;;;13.02;10.05;;;;;;;;;;4952580;28;20098;-76
2022/10/28 07:53:32;;;;;;;17.45;10.13;;;;;;;;;;4948927;28;20043;-75
2022/10/28 07:55:59;;;;;;;14.40;9.90;;;;;;;;;;4987361;28;20039;-76
2022/10/28 07:58:26;;;;;;;15.45;9.80;;;;;;;;;;4952849;28;20043;-76
2022/10/28 08:00:52;;;;;;;14.23;9.75;;;;;;;;;;4964433;28;20058;-76
2022/10/28 08:03:19;;;;;;;16.17;10.82;;;;;;;;;;4957632;28;20047;-75
2022/10/28 08:05:45;;;;;;;14.68;9.60;;;;;;;;;;4946788;28;20043;-76
2022/10/28 08:08:11;;;;;;;14.93;9.23;;;;;;;;;;4950807;29;20054;-75
2022/10/28 08:10:37;;;;;;;14.77;9.40;;;;;;;;;;4948642;29;20086;-76
2022/10/28 08:13:03;;;;;;;14.50;9.45;;;;;;;;;;4982432;28;20086;-76
2022/10/28 08:15:29;;;;;;;14.88;9.38;;;;;;;;;;4969740;28;20375;-76
2022/10/28 08:17:55;;;;;;;14.18;9.57;;;;;;;;;;4951423;29;20407;-76
2022/10/28 08:20:22;;;;;;;13.82;9.35;;;;;;;;;;4949693;28;20414;-76
2022/10/28 08:22:48;;;;;;;15.00;9.60;;;;;;;;;;4977560;28;20138;-75
2022/10/28 08:25:14;;;;;;;16.73;10.18;;;;;;;;;;4935190;28;20122;-75
2022/10/28 08:27:41;;;;;;;16.67;9.20;;;;;;;;;;4963902;28;20043;-75
2022/10/28 08:30:07;;;;;;;14.98;9.23;;;;;;;;;;4983499;28;20114;-76
2022/10/28 08:32:34;;;;;;;12.48;8.73;;;;;;;;;;4936066;29;20127;-75
2022/10/28 08:35:00;;;;;;;15.88;9.45;;;;;;;;;;4935122;28;20448;-76
2022/10/28 08:37:26;;;;;;;17.52;8.95;;;;;;;;;;4950383;28;20049;-76
2022/10/28 08:39:52;;;;;;;15.57;9.13;;;;;;;;;;4985854;28;20502;-76
2022/10/28 08:42:25;;;;;;;15.38;9.32;;;;;;;;;;4984716;28;20050;-76
2022/10/28 08:45:03;;;;;;;15.73;9.80;;;;;;;;;;5001114;28;20051;-76
2022/10/28 08:47:48;;;;;;;12.52;9.05;;;;;;;;;;4960345;28;20093;-76
2022/10/28 08:50:15;;;;;;;15.00;9.32;;;;;;;;;;4962991;28;20047;-76
2022/10/28 08:52:44;;;;;;;15.55;8.80;;;;;;;;;;4953043;29;20047;-76
2022/10/28 08:55:30;;;;;;;15.00;9.13;;;;;;;;;;4983989;28;20399;-76
2022/10/28 08:58:07;;;;;;;14.00;9.05;;;;;;;;;;4953057;28;20087;-76
2022/10/28 09:00:33;;;;;;;13.90;8.75;;;;;;;;;;4953389;29;20051;-76
2022/10/28 09:03:12;;;;;;;14.23;8.90;;;;;;;;;;4968586;28;20069;-76
2022/10/28 09:05:43;;;;;;;12.52;8.93;;;;;;;;;;4953645;28;20058;-75
2022/10/28 09:08:17;;;;;;;12.05;8.82;;;;;;;;;;4970940;28;20047;-76
2022/10/28 09:10:58;;;;;;;16.50;8.85;;;;;;;;;;4958796;28;20042;-76
2022/10/28 09:13:24;;;;;;;13.95;8.93;;;;;;;;;;4953169;28;20051;-76
2022/10/28 09:15:53;;;;;;;13.73;9.07;;;;;;;;;;4987347;28;20097;-76
2022/10/28 09:18:21;;;;;;;15.00;9.68;;;;;;;;;;4945704;28;20050;-76
2022/10/28 09:20:50;;;;;;;18.75;9.20;;;;;;;;;;4987266;28;20488;-76
2022/10/28 09:23:16;;;;;;;12.52;8.75;;;;;;;;;;4979675;28;20472;-75
2022/10/28 09:26:02;;;;;;;19.60;9.50;;;;;;;;;;4952284;29;20071;-76
2022/10/28 09:29:06;;;;;;;12.05;8.35;;;;;;;;;;4952075;28;20665;-76
2022/10/28 09:31:35;;;;;;;13.60;7.90;;;;;;;;;;4941455;28;20500;-76
2022/10/28 09:34:20;;;;;;;16.17;8.73;;;;;;;;;;4899576;29;20515;-76
2022/10/28 09:36:53;;;;;;;15.52;8.73;;;;;;;;;;4921011;29;20094;-76
2022/10/28 09:39:20;;;;;;;12.90;9.00;;;;;;;;;;4945414;28;20062;-76
2022/10/28 09:41:47;;;;;;;13.57;8.45;;;;;;;;;;4946964;29;20349;-76
2022/10/28 09:44:13;;;;;;;13.45;8.43;;;;;;;;;;4954348;28;20121;-76
2022/10/28 09:46:39;;;;;;;13.38;8.10;;;;;;;;;;4949583;28;20043;-76
2022/10/28 09:49:10;;;;;;;15.75;8.02;;;;;;;;;;4986225;28;20395;-76
2022/10/28 09:51:51;;;;;;;16.48;8.63;;;;;;;;;;4987443;28;20053;-76
2022/10/28 09:54:27;;;;;;;13.98;8.50;;;;;;;;;;4954593;28;20401;-76
2022/10/28 09:56:53;;;;;;;12.90;7.93;;;;;;;;;;4957086;28;20079;-76
2022/10/28 09:59:19;;;;;;;12.50;8.52;;;;;;;;;;4985200;28;20134;-77
2022/10/28 10:01:46;;;;;;;13.77;8.20;;;;;;;;;;4946322;28;20051;-76
2022/10/28 10:04:20;;;;;;;14.18;8.43;;;;;;;;;;4957988;28;20062;-75
2022/10/28 10:06:48;;;;;;;12.50;8.48;;;;;;;;;;4955839;28;20031;-76
2022/10/28 10:09:19;;;;;;;12.93;8.48;;;;;;;;;;4948922;28;20051;-76
2022/10/28 10:11:46;;;;;;;12.57;8.07;;;;;;;;;;4955499;28;20134;-76
2022/10/28 10:14:14;;;;;;;16.92;8.40;;;;;;;;;;4954743;28;20054;-76
2022/10/28 10:16:58;;;;;;;15.95;8.10;;;;;;;;;;4986299;28;20054;-76
2022/10/28 10:19:24;;;;;;;13.52;8.20;;;;;;;;;;4944511;28;20106;-76
2022/10/28 10:21:53;;;;;;;17.85;8.88;;;;;;;;;;4953036;29;20518;-76
2022/10/28 10:24:25;;;;;;;17.20;8.20;;;;;;;;;;4951972;28;20131;-75
2022/10/28 10:26:52;;;;;;;14.30;7.95;;;;;;;;;;4935077;29;20106;-76
2022/10/28 10:29:18;;;;;;;14.82;8.20;;;;;;;;;;4942340;28;20053;-77
2022/10/28 10:31:44;;;;;;;12.60;7.88;;;;;;;;;;4935660;29;20134;-76
2022/10/28 10:34:37;;;;;;;16.10;8.13;;;;;;;;;;4935383;28;20079;-76
2022/10/28 10:37:03;;;;;;;15.95;7.70;;;;;;;;;;4952032;28;20058;-76
2022/10/28 10:39:36;;;;;;;14.65;7.97;;;;;;;;;;4944931;28;20047;-77
2022/10/28 10:42:02;;;;;;;14.50;7.68;;;;;;;;;;4981254;28;20050;-76
2022/10/28 10:44:33;;;;;;;11.85;7.63;;;;;;;;;;4948977;28;20070;-76
2022/10/28 10:46:59;;;;;;;15.55;7.28;;;;;;;;;;4942861;28;20099;-76
2022/10/28 10:49:29;;;;;;;13.43;7.80;;;;;;;;;;4933017;29;20047;-76
2022/10/28 10:51:56;;;;;;;14.05;7.40;;;;;;;;;;4942202;28;20174;-76
2022/10/28 10:54:22;;;;;;;13.30;7.05;;;;;;;;;;4944323;28;20507;-76
2022/10/28 10:56:48;;;;;;;15.10;7.20;;;;;;;;;;4953652;28;20235;-76
2022/10/28 10:59:23;;;;;;;13.85;7.28;;;;;;;;;;4992437;28;20049;-76
2022/10/28 11:01:49;;;;;;;11.40;7.22;;;;;;;;;;4948060;28;20063;-76
2022/10/28 11:04:16;;;;;;;14.15;6.72;;;;;;;;;;4945413;28;20400;-76
2022/10/28 11:06:43;;;;;;;13.52;7.45;;;;;;;;;;4961147;28;20488;-76
2022/10/28 11:09:18;;;;;;;16.17;7.53;;;;;;;;;;4956536;28;20043;-76
2022/10/28 11:11:44;;;;;;;13.20;7.47;;;;;;;;;;4952365;28;20051;-76
2022/10/28 11:14:12;;;;;;;15.35;7.53;;;;;;;;;;4945789;28;20060;-76
2022/10/28 11:16:53;;;;;;;12.48;7.88;;;;;;;;;;4955973;28;20050;-76
2022/10/28 11:19:20;;;;;;;11.75;6.93;;;;;;;;;;4949933;28;20106;-76
2022/10/28 11:22:01;;;;;;;10.48;6.53;;;;;;;;;;4937949;28;20055;-76
2022/10/28 11:24:37;;;;;;;14.18;7.60;;;;;;;;;;4948605;28;20471;-76
2022/10/28 11:27:12;;;;;;;12.40;6.75;;;;;;;;;;4943764;28;20081;-76
2022/10/28 11:29:38;;;;;;;14.05;7.15;;;;;;;;;;4948644;28;20488;-76
2022/10/28 11:32:20;;;;;;;11.60;7.20;;;;;;;;;;4980452;28;20058;-76
2022/10/28 11:35:05;;;;;;;12.05;6.97;;;;;;;;;;4943868;28;20109;-76
2022/10/28 11:37:37;;;;;;;14.23;7.35;;;;;;;;;;4976895;28;20047;-76
2022/10/28 11:40:06;;;;;;;11.10;7.33;;;;;;;;;;4951824;28;20074;-77
2022/10/28 11:42:44;;;;;;;17.15;7.50;;;;;;;;;;4958315;28;20164;-77
2022/10/28 11:45:20;;;;;;;14.80;7.22;;;;;;;;;;4986064;28;20043;-77
2022/10/28 11:48:09;;;;;;;11.80;7.07;;;;;;;;;;4996713;28;20150;-77
2022/10/28 11:50:40;;;;;;;11.80;6.68;;;;;;;;;;4943569;28;20554;-77
2022/10/28 11:53:22;;;;;;;16.35;7.22;;;;;;;;;;4951478;28;20091;-77
2022/10/28 11:55:58;;;;;;;13.95;6.85;;;;;;;;;;4987813;28;20039;-77
2022/10/28 11:58:24;;;;;;;13.23;6.60;;;;;;;;;;4961349;28;20056;-78
2022/10/28 12:00:53;;;;;;;10.45;6.50;;;;;;;;;;4953989;28;20138;-77
2022/10/28 12:03:31;;;;;;;15.10;7.25;;;;;;;;;;4983851;28;20048;-78
2022/10/28 12:05:57;;;;;;;15.95;7.00;;;;;;;;;;4994228;28;20062;-79
2022/10/28 12:08:33;;;;;;;15.45;6.78;;;;;;;;;;4964401;28;20483;-78
2022/10/28 12:11:20;;;;;;;9.48;6.22;;;;;;;;;;4940518;28;20035;-79
2022/10/28 12:14:05;;;;;;;12.52;7.05;;;;;;;;;;4944537;28;20039;-79
2022/10/28 12:16:46;;;;;;;13.77;6.70;;;;;;;;;;4956143;28;20110;-78
2022/10/28 12:19:17;;;;;;;18.17;7.30;;;;;;;;;;4982062;28;20114;-77
2022/10/28 12:21:56;;;;;;;12.73;6.78;;;;;;;;;;4954145;29;20067;-78
2022/10/28 12:24:24;;;;;;;18.02;7.80;;;;;;;;;;4955253;28;20043;-77
2022/10/28 12:26:53;;;;;;;16.30;6.82;;;;;;;;;;4987335;28;20543;-77
2022/10/28 12:29:22;;;;;;;15.98;7.18;;;;;;;;;;4954829;28;20099;-78
2022/10/28 12:31:51;;;;;;;16.08;6.88;;;;;;;;;;4956074;29;20051;-77
2022/10/28 12:34:19;;;;;;;12.32;7.10;;;;;;;;;;4950673;28;20192;-77
2022/10/28 12:36:45;;;;;;;12.77;6.93;;;;;;;;;;4957290;29;20058;-76
2022/10/28 12:39:20;;;;;;;13.93;7.18;;;;;;;;;;4952279;28;20115;-79
2022/10/28 12:41:49;;;;;;;14.95;7.13;;;;;;;;;;4948736;28;20492;-78
2022/10/28 12:44:18;;;;;;;14.63;7.18;;;;;;;;;;4985209;28;20047;-77
2022/10/28 12:46:53;;;;;;;12.55;7.20;;;;;;;;;;4981054;28;20048;-77
2022/10/28 12:49:31;;;;;;;15.20;7.03;;;;;;;;;;4939971;28;20109;-77
2022/10/28 12:51:58;;;;;;;13.10;7.22;;;;;;;;;;4953390;28;20149;-77
2022/10/28 12:54:31;;;;;;;18.83;7.35;;;;;;;;;;4967291;28;20127;-77
2022/10/28 12:57:18;;;;;;;12.75;6.85;;;;;;;;;;4971836;28;20507;-77
2022/10/28 12:59:50;;;;;;;16.65;7.88;;;;;;;;;;4945412;28;20062;-77
2022/10/28 13:02:18;;;;;;;12.05;7.85;;;;;;;;;;4960282;28;20397;-77
2022/10/28 13:04:44;;;;;;;11.32;7.65;;;;;;;;;;4954988;28;20436;-77
2022/10/28 13:07:30;;;;;;;17.30;7.57;;;;;;;;;;4968846;28;20526;-77
2022/10/28 13:09:56;;;;;;;13.90;8.02;;;;;;;;;;4953263;28;20079;-77
2022/10/28 13:12:25;;;;;;;11.52;7.15;;;;;;;;;;4966946;28;20074;-77
2022/10/28 13:14:51;;;;;;;15.65;7.22;;;;;;;;;;4982671;28;20066;-76
2022/10/28 13:17:36;;;;;;;12.38;7.32;;;;;;;;;;4979168;28;20040;-77
2022/10/28 13:20:02;;;;;;;15.73;7.63;;;;;;;;;;4938359;28;20042;-77
2022/10/28 13:22:41;;;;;;;13.30;7.30;;;;;;;;;;4950719;28;20050;-76
2022/10/28 13:25:07;;;;;;;15.27;8.07;;;;;;;;;;4951499;28;20520;-76
2022/10/28 13:27:33;;;;;;;17.67;7.80;;;;;;;;;;4948870;28;20045;-76
2022/10/28 13:30:01;;;;;;;16.77;7.72;;;;;;;;;;4950508;28;20447;-76
2022/10/28 13:32:35;;;;;;;12.38;7.90;;;;;;;;;;4947446;28;20043;-76
2022/10/28 13:35:15;;;;;;;15.48;7.25;;;;;;;;;;4944816;28;20502;-76
2022/10/28 13:37:45;;;;;;;12.98;7.45;;;;;;;;;;4942689;28;20047;-76
2022/10/28 13:40:32;;;;;;;15.68;6.90;;;;;;;;;;4949174;28;20102;-76
2022/10/28 13:42:59;;;;;;;12.95;7.07;;;;;;;;;;4956492;28;20051;-77
2022/10/28 13:45:47;;;;;;;11.80;6.65;;;;;;;;;;4953187;28;20054;-77
2022/10/28 13:48:29;;;;;;;15.02;7.07;;;;;;;;;;4951979;28;20055;-77
2022/10/28 13:51:10;;;;;;;13.02;7.00;;;;;;;;;;4947175;28;20390;-77
2022/10/28 13:53:37;;;;;;;13.15;7.00;;;;;;;;;;4945451;28;20478;-77
2022/10/28 13:56:11;;;;;;;11.18;6.53;;;;;;;;;;4948224;28;20050;-77
2022/10/28 13:58:37;;;;;;;13.15;6.28;;;;;;;;;;4952863;28;20127;-77
2022/10/28 14:01:22;;;;;;;15.75;6.60;;;;;;;;;;4954364;28;20062;-77
2022/10/28 14:03:51;;;;;;;16.80;6.90;;;;;;;;;;4949972;28;20055;-77
2022/10/28 14:06:30;;;;;;;14.95;5.80;;;;;;;;;;4949424;28;20046;-77
2022/10/28 14:08:56;;;;;;;14.55;5.90;;;;;;;;;;4946860;28;20058;-76
2022/10/28 14:11:23;;;;;;;12.57;6.20;;;;;;;;;;4982558;28;20052;-77
2022/10/28 14:13:49;;;;;;;11.27;5.90;;;;;;;;;;4948528;28;20411;-77
2022/10/28 14:16:15;;;;;;;16.08;6.78;;;;;;;;;;4978112;28;20513;-76
2022/10/28 14:18:41;;;;;;;16.30;6.07;;;;;;;;;;4949300;28;20043;-76
2022/10/28 14:21:07;;;;;;;13.10;6.55;;;;;;;;;;4951544;28;20079;-77
2022/10/28 14:23:35;;;;;;;11.98;5.80;;;;;;;;;;4965735;28;20055;-76
2022/10/28 14:26:05;;;;;;;10.80;5.63;;;;;;;;;;4951207;28;20048;-76
2022/10/28 14:28:31;;;;;;;14.95;6.53;;;;;;;;;;4951192;28;20042;-77
2022/10/28 14:31:13;;;;;;;14.20;5.95;;;;;;;;;;4947660;28;20047;-76
2022/10/28 14:33:45;;;;;;;16.83;6.38;;;;;;;;;;4946680;28;20046;-77
2022/10/28 14:36:17;;;;;;;16.50;6.18;;;;;;;;;;4951207;28;20059;-76